sensor_id;sensor_type;location;lat;lon;timestamp;P1;durP1;ratioP1;P2;durP2;ratioP2
18159;SDS011;9205;52.032;4.314;2024-03-23T00:55:47;3.03;;;2.83;;
18159;SDS011;9205;52.032;4.314;2024-03-23T00:58:13;2.40;;;2.30;;
18159;SDS011;9205;52.032;4.314;2024-03-23T01:00:40;3.00;;;2.80;;
18159;SDS011;9205;52.032;4.314;2024-03-23T01:03:06;2.40;;;2.30;;
18159;SDS011;9205;52.032;4.314;2024-03-23T01:05:33;2.40;;;2.30;;
18159;SDS011;9205;52.032;4.314;2024-03-23T01:08:00;2.40;;;2.30;;
18159;SDS011;9205;52.032;4.314;2024-03-23T01:10:27;2.50;;;2.40;;
18159;SDS011;9205;52.032;4.314;2024-03-23T01:12:54;2.40;;;2.30;;
18159;SDS011;9205;52.032;4.314;2024-03-23T01:15:22;3.10;;;2.90;;
18159;SDS011;9205;52.032;4.314;2024-03-23T01:17:48;5.97;;;2.70;;
18159;SDS011;9205;52.032;4.314;2024-03-23T01:20:15;2.50;;;2.40;;
18159;SDS011;9205;52.032;4.314;2024-03-23T01:22:42;2.50;;;2.40;;
18159;SDS011;9205;52.032;4.314;2024-03-23T01:25:09;2.87;;;2.73;;
18159;SDS011;9205;52.032;4.314;2024-03-23T01:27:36;2.60;;;2.50;;
18159;SDS011;9205;52.032;4.314;2024-03-23T01:30:05;5.70;;;3.00;;
18159;SDS011;9205;52.032;4.314;2024-03-23T01:32:32;2.50;;;2.40;;
18159;SDS011;9205;52.032;4.314;2024-03-23T01:35:00;2.63;;;2.53;;
18159;SDS011;9205;52.032;4.314;2024-03-23T01:37:26;2.87;;;2.73;;
18159;SDS011;9205;52.032;4.314;2024-03-23T01:39:53;2.50;;;2.40;;
18159;SDS011;9205;52.032;4.314;2024-03-23T01:42:20;2.60;;;2.50;;
18159;SDS011;9205;52.032;4.314;2024-03-23T01:44:47;2.60;;;2.50;;
18159;SDS011;9205;52.032;4.314;2024-03-23T01:47:15;5.87;;;3.00;;
18159;SDS011;9205;52.032;4.314;2024-03-23T01:49:42;2.60;;;2.50;;
18159;SDS011;9205;52.032;4.314;2024-03-23T01:52:09;2.90;;;2.80;;
18159;SDS011;9205;52.032;4.314;2024-03-23T01:54:38;2.70;;;2.60;;
18159;SDS011;9205;52.032;4.314;2024-03-23T01:57:06;2.50;;;2.40;;
18159;SDS011;9205;52.032;4.314;2024-03-23T01:59:33;2.80;;;2.70;;
18159;SDS011;9205;52.032;4.314;2024-03-23T02:01:59;3.40;;;3.10;;
18159;SDS011;9205;52.032;4.314;2024-03-23T02:04:29;2.80;;;2.70;;
18159;SDS011;9205;52.032;4.314;2024-03-23T02:06:56;3.10;;;2.97;;
18159;SDS011;9205;52.032;4.314;2024-03-23T02:09:23;7.53;;;3.43;;
18159;SDS011;9205;52.032;4.314;2024-03-23T02:11:50;3.33;;;3.20;;
18159;SDS011;9205;52.032;4.314;2024-03-23T02:14:17;2.70;;;2.60;;
18159;SDS011;9205;52.032;4.314;2024-03-23T02:16:43;2.80;;;2.70;;
18159;SDS011;9205;52.032;4.314;2024-03-23T02:19:13;2.87;;;2.77;;
18159;SDS011;9205;52.032;4.314;2024-03-23T02:21:41;2.50;;;2.40;;
18159;SDS011;9205;52.032;4.314;2024-03-23T02:24:09;2.93;;;2.73;;
18159;SDS011;9205;52.032;4.314;2024-03-23T02:26:35;2.97;;;2.87;;
18159;SDS011;9205;52.032;4.314;2024-03-23T02:29:02;2.80;;;2.70;;
18159;SDS011;9205;52.032;4.314;2024-03-23T02:31:29;2.93;;;2.83;;
18159;SDS011;9205;52.032;4.314;2024-03-23T02:33:56;2.83;;;2.73;;
18159;SDS011;9205;52.032;4.314;2024-03-23T02:36:22;3.17;;;2.97;;
18159;SDS011;9205;52.032;4.314;2024-03-23T02:38:49;3.43;;;3.10;;
18159;SDS011;9205;52.032;4.314;2024-03-23T02:41:17;2.73;;;2.60;;
18159;SDS011;9205;52.032;4.314;2024-03-23T02:43:48;2.40;;;2.30;;
18159;SDS011;9205;52.032;4.314;2024-03-23T02:46:17;7.40;;;3.30;;
18159;SDS011;9205;52.032;4.314;2024-03-23T02:48:44;2.40;;;2.30;;
18159;SDS011;9205;52.032;4.314;2024-03-23T02:51:13;2.40;;;2.30;;
18159;SDS011;9205;52.032;4.314;2024-03-23T02:53:40;2.80;;;2.70;;
18159;SDS011;9205;52.032;4.314;2024-03-23T02:56:07;2.43;;;2.33;;
18159;SDS011;9205;52.032;4.314;2024-03-23T02:58:35;2.47;;;2.37;;
18159;SDS011;9205;52.032;4.314;2024-03-23T03:01:01;2.80;;;2.70;;
18159;SDS011;9205;52.032;4.314;2024-03-23T03:03:29;2.90;;;2.80;;
18159;SDS011;9205;52.032;4.314;2024-03-23T03:05:55;2.83;;;2.73;;
18159;SDS011;9205;52.032;4.314;2024-03-23T03:08:23;3.00;;;2.80;;
18159;SDS011;9205;52.032;4.314;2024-03-23T03:10:49;3.10;;;2.80;;
18159;SDS011;9205;52.032;4.314;2024-03-23T03:13:16;2.50;;;2.40;;
18159;SDS011;9205;52.032;4.314;2024-03-23T03:15:44;2.53;;;2.43;;
18159;SDS011;9205;52.032;4.314;2024-03-23T03:18:12;2.70;;;2.60;;
18159;SDS011;9205;52.032;4.314;2024-03-23T03:20:38;2.67;;;2.57;;
18159;SDS011;9205;52.032;4.314;2024-03-23T03:23:05;2.60;;;2.50;;
18159;SDS011;9205;52.032;4.314;2024-03-23T03:25:32;2.83;;;2.73;;
18159;SDS011;9205;52.032;4.314;2024-03-23T03:27:59;4.50;;;2.90;;
18159;SDS011;9205;52.032;4.314;2024-03-23T03:30:27;10.03;;;3.37;;
18159;SDS011;9205;52.032;4.314;2024-03-23T03:32:55;2.73;;;2.63;;
18159;SDS011;9205;52.032;4.314;2024-03-23T03:35:21;3.00;;;2.90;;
18159;SDS011;9205;52.032;4.314;2024-03-23T03:37:49;2.90;;;2.80;;
18159;SDS011;9205;52.032;4.314;2024-03-23T03:40:15;2.40;;;2.30;;
18159;SDS011;9205;52.032;4.314;2024-03-23T03:42:42;2.40;;;2.30;;
18159;SDS011;9205;52.032;4.314;2024-03-23T03:45:08;2.70;;;2.60;;
18159;SDS011;9205;52.032;4.314;2024-03-23T03:47:35;4.13;;;3.23;;
18159;SDS011;9205;52.032;4.314;2024-03-23T03:50:03;2.80;;;2.70;;
18159;SDS011;9205;52.032;4.314;2024-03-23T03:52:31;2.90;;;2.80;;
18159;SDS011;9205;52.032;4.314;2024-03-23T03:55:01;2.97;;;2.83;;
18159;SDS011;9205;52.032;4.314;2024-03-23T03:57:28;2.70;;;2.60;;
18159;SDS011;9205;52.032;4.314;2024-03-23T03:59:55;2.90;;;2.70;;
18159;SDS011;9205;52.032;4.314;2024-03-23T04:02:21;3.13;;;2.93;;
18159;SDS011;9205;52.032;4.314;2024-03-23T04:04:49;2.50;;;2.40;;
18159;SDS011;9205;52.032;4.314;2024-03-23T04:07:16;3.00;;;2.80;;
18159;SDS011;9205;52.032;4.314;2024-03-23T04:09:43;2.53;;;2.43;;
18159;SDS011;9205;52.032;4.314;2024-03-23T04:12:09;2.60;;;2.50;;
18159;SDS011;9205;52.032;4.314;2024-03-23T04:14:36;2.43;;;2.33;;
18159;SDS011;9205;52.032;4.314;2024-03-23T04:17:03;3.00;;;2.90;;
18159;SDS011;9205;52.032;4.314;2024-03-23T04:19:30;4.30;;;2.70;;
18159;SDS011;9205;52.032;4.314;2024-03-23T04:21:56;3.00;;;2.90;;
18159;SDS011;9205;52.032;4.314;2024-03-23T04:24:25;2.60;;;2.50;;
18159;SDS011;9205;52.032;4.314;2024-03-23T04:26:51;2.93;;;2.83;;
18159;SDS011;9205;52.032;4.314;2024-03-23T04:29:19;2.90;;;2.80;;
18159;SDS011;9205;52.032;4.314;2024-03-23T04:31:45;2.70;;;2.60;;
18159;SDS011;9205;52.032;4.314;2024-03-23T04:34:12;3.10;;;2.97;;
18159;SDS011;9205;52.032;4.314;2024-03-23T04:36:39;6.10;;;2.80;;
18159;SDS011;9205;52.032;4.314;2024-03-23T04:39:06;3.00;;;2.90;;
18159;SDS011;9205;52.032;4.314;2024-03-23T04:41:35;3.47;;;3.27;;
18159;SDS011;9205;52.032;4.314;2024-03-23T04:44:03;3.20;;;3.00;;
18159;SDS011;9205;52.032;4.314;2024-03-23T04:46:30;5.67;;;3.53;;
18159;SDS011;9205;52.032;4.314;2024-03-23T04:48:57;9.70;;;3.23;;
18159;SDS011;9205;52.032;4.314;2024-03-23T04:51:25;3.47;;;3.27;;
18159;SDS011;9205;52.032;4.314;2024-03-23T04:53:52;14.80;;;2.90;;
18159;SDS011;9205;52.032;4.314;2024-03-23T04:56:18;3.53;;;3.20;;
18159;SDS011;9205;52.032;4.314;2024-03-23T04:58:47;3.00;;;2.90;;
18159;SDS011;9205;52.032;4.314;2024-03-23T05:01:13;6.90;;;3.03;;
18159;SDS011;9205;52.032;4.314;2024-03-23T05:03:40;2.50;;;2.40;;
18159;SDS011;9205;52.032;4.314;2024-03-23T05:06:06;3.13;;;2.93;;
18159;SDS011;9205;52.032;4.314;2024-03-23T05:08:34;2.83;;;2.73;;
18159;SDS011;9205;52.032;4.314;2024-03-23T05:11:00;2.90;;;2.70;;
18159;SDS011;9205;52.032;4.314;2024-03-23T05:13:28;3.13;;;3.03;;
18159;SDS011;9205;52.032;4.314;2024-03-23T05:15:55;2.90;;;2.80;;
18159;SDS011;9205;52.032;4.314;2024-03-23T05:18:22;3.20;;;3.10;;
18159;SDS011;9205;52.032;4.314;2024-03-23T05:20:55;2.87;;;2.77;;
18159;SDS011;9205;52.032;4.314;2024-03-23T05:23:24;2.70;;;2.60;;
18159;SDS011;9205;52.032;4.314;2024-03-23T05:25:50;3.50;;;3.17;;
18159;SDS011;9205;52.032;4.314;2024-03-23T05:28:18;2.80;;;2.70;;
18159;SDS011;9205;52.032;4.314;2024-03-23T05:30:49;2.60;;;2.50;;
18159;SDS011;9205;52.032;4.314;2024-03-23T05:33:19;2.90;;;2.80;;
18159;SDS011;9205;52.032;4.314;2024-03-23T05:35:46;3.20;;;3.00;;
18159;SDS011;9205;52.032;4.314;2024-03-23T05:38:13;3.67;;;3.20;;
18159;SDS011;9205;52.032;4.314;2024-03-23T05:40:40;5.87;;;3.07;;
18159;SDS011;9205;52.032;4.314;2024-03-23T05:43:07;2.83;;;2.73;;
18159;SDS011;9205;52.032;4.314;2024-03-23T05:45:34;2.60;;;2.50;;
18159;SDS011;9205;52.032;4.314;2024-03-23T05:48:01;8.73;;;2.37;;
18159;SDS011;9205;52.032;4.314;2024-03-23T05:50:29;2.17;;;2.07;;
18159;SDS011;9205;52.032;4.314;2024-03-23T05:52:56;2.40;;;2.30;;
18159;SDS011;9205;52.032;4.314;2024-03-23T05:55:22;2.50;;;2.40;;
18159;SDS011;9205;52.032;4.314;2024-03-23T05:57:49;3.17;;;2.60;;
18159;SDS011;9205;52.032;4.314;2024-03-23T06:00:16;2.30;;;2.20;;
18159;SDS011;9205;52.032;4.314;2024-03-23T06:02:43;2.23;;;2.13;;
18159;SDS011;9205;52.032;4.314;2024-03-23T06:05:10;4.17;;;2.30;;
18159;SDS011;9205;52.032;4.314;2024-03-23T06:07:38;2.90;;;2.70;;
18159;SDS011;9205;52.032;4.314;2024-03-23T06:10:11;2.20;;;2.10;;
18159;SDS011;9205;52.032;4.314;2024-03-23T06:12:41;2.47;;;2.37;;
18159;SDS011;9205;52.032;4.314;2024-03-23T06:15:08;5.70;;;3.17;;
18159;SDS011;9205;52.032;4.314;2024-03-23T06:17:35;2.40;;;2.30;;
18159;SDS011;9205;52.032;4.314;2024-03-23T06:20:03;2.87;;;2.63;;
18159;SDS011;9205;52.032;4.314;2024-03-23T06:22:31;2.50;;;2.40;;
18159;SDS011;9205;52.032;4.314;2024-03-23T06:25:00;5.73;;;3.27;;
18159;SDS011;9205;52.032;4.314;2024-03-23T06:27:26;2.50;;;2.40;;
18159;SDS011;9205;52.032;4.314;2024-03-23T06:29:53;2.27;;;2.17;;
18159;SDS011;9205;52.032;4.314;2024-03-23T06:32:20;5.07;;;2.30;;
18159;SDS011;9205;52.032;4.314;2024-03-23T06:34:47;2.60;;;2.50;;
18159;SDS011;9205;52.032;4.314;2024-03-23T06:37:14;2.30;;;2.20;;
18159;SDS011;9205;52.032;4.314;2024-03-23T06:39:46;3.10;;;2.90;;
18159;SDS011;9205;52.032;4.314;2024-03-23T06:42:13;2.40;;;2.20;;
18159;SDS011;9205;52.032;4.314;2024-03-23T06:44:41;2.50;;;2.40;;
18159;SDS011;9205;52.032;4.314;2024-03-23T06:47:07;2.10;;;2.00;;
18159;SDS011;9205;52.032;4.314;2024-03-23T06:49:34;2.40;;;2.30;;
18159;SDS011;9205;52.032;4.314;2024-03-23T06:52:01;2.43;;;2.33;;
18159;SDS011;9205;52.032;4.314;2024-03-23T06:54:28;2.63;;;2.43;;
18159;SDS011;9205;52.032;4.314;2024-03-23T06:56:54;2.77;;;2.50;;
18159;SDS011;9205;52.032;4.314;2024-03-23T06:59:22;2.47;;;2.37;;
18159;SDS011;9205;52.032;4.314;2024-03-23T07:01:48;2.83;;;2.67;;
18159;SDS011;9205;52.032;4.314;2024-03-23T07:04:16;5.70;;;3.03;;
18159;SDS011;9205;52.032;4.314;2024-03-23T07:06:42;2.20;;;2.10;;
18159;SDS011;9205;52.032;4.314;2024-03-23T07:09:10;4.93;;;2.83;;
18159;SDS011;9205;52.032;4.314;2024-03-23T07:11:36;2.73;;;2.63;;
18159;SDS011;9205;52.032;4.314;2024-03-23T07:14:04;2.20;;;2.10;;
18159;SDS011;9205;52.032;4.314;2024-03-23T07:16:31;4.63;;;2.43;;
18159;SDS011;9205;52.032;4.314;2024-03-23T07:18:59;2.40;;;2.30;;
18159;SDS011;9205;52.032;4.314;2024-03-23T07:21:25;2.13;;;2.03;;
18159;SDS011;9205;52.032;4.314;2024-03-23T07:23:52;2.60;;;2.40;;
18159;SDS011;9205;52.032;4.314;2024-03-23T07:26:18;2.00;;;1.90;;
18159;SDS011;9205;52.032;4.314;2024-03-23T07:28:45;5.77;;;2.43;;
18159;SDS011;9205;52.032;4.314;2024-03-23T07:31:14;4.60;;;2.47;;
18159;SDS011;9205;52.032;4.314;2024-03-23T07:33:43;2.13;;;2.03;;
18159;SDS011;9205;52.032;4.314;2024-03-23T07:36:13;2.00;;;1.90;;
18159;SDS011;9205;52.032;4.314;2024-03-23T07:38:40;2.10;;;2.00;;
18159;SDS011;9205;52.032;4.314;2024-03-23T07:41:08;5.17;;;3.10;;
18159;SDS011;9205;52.032;4.314;2024-03-23T07:43:36;2.40;;;2.30;;
18159;SDS011;9205;52.032;4.314;2024-03-23T07:46:04;2.00;;;1.90;;
18159;SDS011;9205;52.032;4.314;2024-03-23T07:48:30;2.70;;;2.23;;
18159;SDS011;9205;52.032;4.314;2024-03-23T07:51:00;2.50;;;2.40;;
18159;SDS011;9205;52.032;4.314;2024-03-23T07:53:28;2.10;;;2.00;;
18159;SDS011;9205;52.032;4.314;2024-03-23T07:55:56;1.90;;;1.80;;
18159;SDS011;9205;52.032;4.314;2024-03-23T07:58:25;2.60;;;2.20;;
18159;SDS011;9205;52.032;4.314;2024-03-23T08:00:53;2.10;;;2.00;;
18159;SDS011;9205;52.032;4.314;2024-03-23T08:03:20;1.77;;;1.70;;
18159;SDS011;9205;52.032;4.314;2024-03-23T08:05:47;2.83;;;2.53;;
18159;SDS011;9205;52.032;4.314;2024-03-23T08:08:15;2.40;;;2.30;;
18159;SDS011;9205;52.032;4.314;2024-03-23T08:10:49;2.00;;;1.90;;
18159;SDS011;9205;52.032;4.314;2024-03-23T08:13:15;2.17;;;2.07;;
18159;SDS011;9205;52.032;4.314;2024-03-23T08:15:43;2.10;;;2.00;;
18159;SDS011;9205;52.032;4.314;2024-03-23T08:18:10;5.13;;;2.07;;
18159;SDS011;9205;52.032;4.314;2024-03-23T08:20:38;2.20;;;2.10;;
18159;SDS011;9205;52.032;4.314;2024-03-23T08:23:05;12.03;;;2.47;;
18159;SDS011;9205;52.032;4.314;2024-03-23T08:25:34;1.80;;;1.70;;
18159;SDS011;9205;52.032;4.314;2024-03-23T08:28:00;2.23;;;2.00;;
18159;SDS011;9205;52.032;4.314;2024-03-23T08:30:28;2.10;;;2.00;;
18159;SDS011;9205;52.032;4.314;2024-03-23T08:32:55;2.67;;;2.00;;
18159;SDS011;9205;52.032;4.314;2024-03-23T08:35:22;1.90;;;1.80;;
18159;SDS011;9205;52.032;4.314;2024-03-23T08:37:49;2.20;;;2.10;;
18159;SDS011;9205;52.032;4.314;2024-03-23T08:40:16;2.00;;;1.90;;
18159;SDS011;9205;52.032;4.314;2024-03-23T08:42:43;2.10;;;2.00;;
18159;SDS011;9205;52.032;4.314;2024-03-23T08:45:11;1.60;;;1.60;;
18159;SDS011;9205;52.032;4.314;2024-03-23T08:47:37;1.60;;;1.60;;
18159;SDS011;9205;52.032;4.314;2024-03-23T08:50:04;1.73;;;1.70;;
18159;SDS011;9205;52.032;4.314;2024-03-23T08:52:31;2.77;;;2.57;;
18159;SDS011;9205;52.032;4.314;2024-03-23T08:54:59;1.97;;;1.87;;
18159;SDS011;9205;52.032;4.314;2024-03-23T08:57:25;1.80;;;1.70;;
18159;SDS011;9205;52.032;4.314;2024-03-23T08:59:54;2.23;;;2.03;;
18159;SDS011;9205;52.032;4.314;2024-03-23T09:02:20;1.70;;;1.60;;
18159;SDS011;9205;52.032;4.314;2024-03-23T09:04:47;1.90;;;1.80;;
18159;SDS011;9205;52.032;4.314;2024-03-23T09:07:13;1.50;;;1.50;;
18159;SDS011;9205;52.032;4.314;2024-03-23T09:09:41;1.80;;;1.70;;
18159;SDS011;9205;52.032;4.314;2024-03-23T09:12:07;2.67;;;2.10;;
18159;SDS011;9205;52.032;4.314;2024-03-23T09:14:34;1.80;;;1.70;;
18159;SDS011;9205;52.032;4.314;2024-03-23T09:17:02;1.50;;;1.50;;
18159;SDS011;9205;52.032;4.314;2024-03-23T09:19:30;1.80;;;1.70;;
18159;SDS011;9205;52.032;4.314;2024-03-23T09:21:56;1.80;;;1.70;;
18159;SDS011;9205;52.032;4.314;2024-03-23T09:24:23;2.20;;;2.10;;
18159;SDS011;9205;52.032;4.314;2024-03-23T09:26:51;1.60;;;1.60;;
18159;SDS011;9205;52.032;4.314;2024-03-23T09:29:18;1.53;;;1.53;;
18159;SDS011;9205;52.032;4.314;2024-03-23T09:31:44;1.60;;;1.60;;
18159;SDS011;9205;52.032;4.314;2024-03-23T09:34:13;1.90;;;1.80;;
18159;SDS011;9205;52.032;4.314;2024-03-23T09:36:40;6.43;;;2.80;;
18159;SDS011;9205;52.032;4.314;2024-03-23T09:39:10;2.30;;;2.10;;
18159;SDS011;9205;52.032;4.314;2024-03-23T09:42:51;2.10;;;1.93;;
18159;SDS011;9205;52.032;4.314;2024-03-23T09:45:23;2.77;;;2.53;;
18159;SDS011;9205;52.032;4.314;2024-03-23T09:47:54;1.80;;;1.70;;
18159;SDS011;9205;52.032;4.314;2024-03-23T09:50:23;2.13;;;2.00;;
18159;SDS011;9205;52.032;4.314;2024-03-23T09:52:49;1.87;;;1.77;;
18159;SDS011;9205;52.032;4.314;2024-03-23T09:55:17;1.90;;;1.80;;
18159;SDS011;9205;52.032;4.314;2024-03-23T09:57:43;1.93;;;1.83;;
18159;SDS011;9205;52.032;4.314;2024-03-23T10:00:11;2.10;;;2.00;;
18159;SDS011;9205;52.032;4.314;2024-03-23T10:02:38;1.60;;;1.60;;
18159;SDS011;9205;52.032;4.314;2024-03-23T10:05:09;2.20;;;2.10;;
18159;SDS011;9205;52.032;4.314;2024-03-23T10:07:48;2.27;;;2.13;;
18159;SDS011;9205;52.032;4.314;2024-03-23T10:10:16;1.70;;;1.70;;
18159;SDS011;9205;52.032;4.314;2024-03-23T10:12:46;2.50;;;2.17;;
18159;SDS011;9205;52.032;4.314;2024-03-23T10:15:18;5.07;;;3.13;;
18159;SDS011;9205;52.032;4.314;2024-03-23T10:17:46;1.80;;;1.70;;
18159;SDS011;9205;52.032;4.314;2024-03-23T10:20:14;2.00;;;1.90;;
18159;SDS011;9205;52.032;4.314;2024-03-23T10:22:45;1.80;;;1.70;;
18159;SDS011;9205;52.032;4.314;2024-03-23T10:25:17;1.90;;;1.80;;
18159;SDS011;9205;52.032;4.314;2024-03-23T10:27:55;1.77;;;1.63;;
18159;SDS011;9205;52.032;4.314;2024-03-23T10:30:26;1.40;;;1.30;;
18159;SDS011;9205;52.032;4.314;2024-03-23T10:32:53;1.40;;;1.30;;
18159;SDS011;9205;52.032;4.314;2024-03-23T10:35:34;1.40;;;1.40;;
18159;SDS011;9205;52.032;4.314;2024-03-23T10:38:04;1.40;;;1.30;;
18159;SDS011;9205;52.032;4.314;2024-03-23T10:40:35;2.27;;;2.17;;
18159;SDS011;9205;52.032;4.314;2024-03-23T10:43:02;1.23;;;1.23;;
18159;SDS011;9205;52.032;4.314;2024-03-23T10:45:30;1.20;;;1.20;;
18159;SDS011;9205;52.032;4.314;2024-03-23T10:47:57;2.27;;;1.20;;
18159;SDS011;9205;52.032;4.314;2024-03-23T10:50:24;1.20;;;1.10;;
18159;SDS011;9205;52.032;4.314;2024-03-23T10:52:52;2.43;;;1.70;;
18159;SDS011;9205;52.032;4.314;2024-03-23T10:55:24;1.30;;;1.30;;
18159;SDS011;9205;52.032;4.314;2024-03-23T10:57:53;1.20;;;1.10;;
18159;SDS011;9205;52.032;4.314;2024-03-23T11:00:23;1.20;;;1.20;;
18159;SDS011;9205;52.032;4.314;2024-03-23T11:02:52;4.60;;;1.43;;
18159;SDS011;9205;52.032;4.314;2024-03-23T11:05:28;1.63;;;1.53;;
18159;SDS011;9205;52.032;4.314;2024-03-23T11:07:58;1.40;;;1.30;;
18159;SDS011;9205;52.032;4.314;2024-03-23T11:11:24;2.50;;;1.80;;
18159;SDS011;9205;52.032;4.314;2024-03-23T11:13:53;1.00;;;1.00;;
18159;SDS011;9205;52.032;4.314;2024-03-23T11:16:23;1.23;;;0.90;;
18159;SDS011;9205;52.032;4.314;2024-03-23T11:18:53;1.23;;;1.13;;
18159;SDS011;9205;52.032;4.314;2024-03-23T11:21:53;0.80;;;0.80;;
18159;SDS011;9205;52.032;4.314;2024-03-23T11:24:20;2.00;;;1.27;;
18159;SDS011;9205;52.032;4.314;2024-03-23T11:26:48;1.17;;;1.17;;
18159;SDS011;9205;52.032;4.314;2024-03-23T11:29:16;5.70;;;1.23;;
18159;SDS011;9205;52.032;4.314;2024-03-23T11:31:47;1.10;;;1.10;;
18159;SDS011;9205;52.032;4.314;2024-03-23T11:34:15;0.90;;;0.90;;
18159;SDS011;9205;52.032;4.314;2024-03-23T11:36:42;1.30;;;1.20;;
18159;SDS011;9205;52.032;4.314;2024-03-23T11:39:12;0.90;;;0.90;;
18159;SDS011;9205;52.032;4.314;2024-03-23T11:41:47;0.97;;;0.90;;
18159;SDS011;9205;52.032;4.314;2024-03-23T11:44:17;1.17;;;1.17;;
18159;SDS011;9205;52.032;4.314;2024-03-23T11:46:45;0.70;;;0.70;;
18159;SDS011;9205;52.032;4.314;2024-03-23T11:49:21;0.97;;;0.90;;
18159;SDS011;9205;52.032;4.314;2024-03-23T11:51:50;1.53;;;1.13;;
18159;SDS011;9205;52.032;4.314;2024-03-23T11:54:20;0.60;;;0.60;;
18159;SDS011;9205;52.032;4.314;2024-03-23T11:56:54;1.43;;;1.33;;
18159;SDS011;9205;52.032;4.314;2024-03-23T11:59:34;0.60;;;0.60;;
18159;SDS011;9205;52.032;4.314;2024-03-23T12:02:07;0.73;;;0.73;;
18159;SDS011;9205;52.032;4.314;2024-03-23T12:04:35;0.70;;;0.70;;
18159;SDS011;9205;52.032;4.314;2024-03-23T12:07:10;0.70;;;0.70;;
18159;SDS011;9205;52.032;4.314;2024-03-23T12:09:38;0.80;;;0.80;;
18159;SDS011;9205;52.032;4.314;2024-03-23T12:12:07;4.00;;;1.53;;
18159;SDS011;9205;52.032;4.314;2024-03-23T12:14:41;1.27;;;1.17;;
18159;SDS011;9205;52.032;4.314;2024-03-23T12:17:12;1.67;;;1.30;;
18159;SDS011;9205;52.032;4.314;2024-03-23T12:19:40;1.00;;;1.00;;
18159;SDS011;9205;52.032;4.314;2024-03-23T12:22:10;1.03;;;1.03;;
18159;SDS011;9205;52.032;4.314;2024-03-23T12:24:36;1.13;;;1.13;;
18159;SDS011;9205;52.032;4.314;2024-03-23T12:27:10;1.00;;;1.00;;
18159;SDS011;9205;52.032;4.314;2024-03-23T12:29:36;3.80;;;1.20;;
18159;SDS011;9205;52.032;4.314;2024-03-23T12:32:06;1.00;;;1.00;;
18159;SDS011;9205;52.032;4.314;2024-03-23T12:34:32;1.57;;;1.47;;
18159;SDS011;9205;52.032;4.314;2024-03-23T12:37:00;1.10;;;1.10;;
18159;SDS011;9205;52.032;4.314;2024-03-23T12:39:27;2.60;;;1.67;;
18159;SDS011;9205;52.032;4.314;2024-03-23T12:41:54;1.60;;;1.50;;
18159;SDS011;9205;52.032;4.314;2024-03-23T12:44:20;1.90;;;1.60;;
18159;SDS011;9205;52.032;4.314;2024-03-23T12:46:49;8.13;;;2.07;;
18159;SDS011;9205;52.032;4.314;2024-03-23T12:49:16;1.70;;;1.60;;
18159;SDS011;9205;52.032;4.314;2024-03-23T12:51:46;2.03;;;1.93;;
18159;SDS011;9205;52.032;4.314;2024-03-23T12:54:19;1.80;;;1.70;;
18159;SDS011;9205;52.032;4.314;2024-03-23T12:56:47;4.30;;;2.10;;
18159;SDS011;9205;52.032;4.314;2024-03-23T12:59:13;1.53;;;1.47;;
18159;SDS011;9205;52.032;4.314;2024-03-23T13:01:41;1.80;;;1.70;;
18159;SDS011;9205;52.032;4.314;2024-03-23T13:04:08;1.37;;;1.37;;
18159;SDS011;9205;52.032;4.314;2024-03-23T13:06:37;1.20;;;1.20;;
18159;SDS011;9205;52.032;4.314;2024-03-23T13:09:03;1.30;;;1.30;;
18159;SDS011;9205;52.032;4.314;2024-03-23T13:11:31;1.33;;;1.13;;
18159;SDS011;9205;52.032;4.314;2024-03-23T13:13:57;3.40;;;1.63;;
18159;SDS011;9205;52.032;4.314;2024-03-23T13:16:25;2.30;;;1.13;;
18159;SDS011;9205;52.032;4.314;2024-03-23T13:18:51;1.10;;;1.10;;
18159;SDS011;9205;52.032;4.314;2024-03-23T13:21:18;2.60;;;1.57;;
18159;SDS011;9205;52.032;4.314;2024-03-23T13:23:47;0.90;;;0.90;;
18159;SDS011;9205;52.032;4.314;2024-03-23T13:26:16;0.90;;;0.90;;
18159;SDS011;9205;52.032;4.314;2024-03-23T13:28:42;3.03;;;1.27;;
18159;SDS011;9205;52.032;4.314;2024-03-23T13:31:09;1.30;;;1.30;;
18159;SDS011;9205;52.032;4.314;2024-03-23T13:33:39;1.00;;;1.00;;
18159;SDS011;9205;52.032;4.314;2024-03-23T13:36:07;0.90;;;0.90;;
18159;SDS011;9205;52.032;4.314;2024-03-23T13:38:34;1.07;;;1.07;;
18159;SDS011;9205;52.032;4.314;2024-03-23T13:41:02;6.93;;;1.30;;
18159;SDS011;9205;52.032;4.314;2024-03-23T13:43:31;1.00;;;1.00;;
18159;SDS011;9205;52.032;4.314;2024-03-23T13:45:59;0.90;;;0.90;;
18159;SDS011;9205;52.032;4.314;2024-03-23T13:48:26;1.43;;;1.00;;
18159;SDS011;9205;52.032;4.314;2024-03-23T13:50:57;1.07;;;1.07;;
18159;SDS011;9205;52.032;4.314;2024-03-23T13:53:24;1.00;;;1.00;;
18159;SDS011;9205;52.032;4.314;2024-03-23T13:55:51;1.00;;;1.00;;
18159;SDS011;9205;52.032;4.314;2024-03-23T13:58:20;1.30;;;1.20;;
18159;SDS011;9205;52.032;4.314;2024-03-23T14:00:48;1.40;;;1.30;;
18159;SDS011;9205;52.032;4.314;2024-03-23T14:03:15;6.57;;;0.93;;
18159;SDS011;9205;52.032;4.314;2024-03-23T14:05:42;0.80;;;0.80;;
18159;SDS011;9205;52.032;4.314;2024-03-23T14:08:08;0.80;;;0.80;;
18159;SDS011;9205;52.032;4.314;2024-03-23T14:10:39;1.40;;;1.30;;
18159;SDS011;9205;52.032;4.314;2024-03-23T14:13:07;0.90;;;0.90;;
18159;SDS011;9205;52.032;4.314;2024-03-23T14:15:35;0.90;;;0.90;;
18159;SDS011;9205;52.032;4.314;2024-03-23T14:18:02;4.90;;;1.63;;
18159;SDS011;9205;52.032;4.314;2024-03-23T14:20:29;0.90;;;0.90;;
18159;SDS011;9205;52.032;4.314;2024-03-23T14:22:57;5.93;;;1.57;;
18159;SDS011;9205;52.032;4.314;2024-03-23T14:25:23;0.90;;;0.90;;
18159;SDS011;9205;52.032;4.314;2024-03-23T14:27:53;0.97;;;0.97;;
18159;SDS011;9205;52.032;4.314;2024-03-23T14:30:20;0.80;;;0.80;;
18159;SDS011;9205;52.032;4.314;2024-03-23T14:32:48;13.13;;;2.90;;
18159;SDS011;9205;52.032;4.314;2024-03-23T14:35:14;0.60;;;0.60;;
18159;SDS011;9205;52.032;4.314;2024-03-23T14:37:42;1.07;;;0.97;;
18159;SDS011;9205;52.032;4.314;2024-03-23T14:40:08;0.60;;;0.60;;
18159;SDS011;9205;52.032;4.314;2024-03-23T14:42:37;2.10;;;0.90;;
18159;SDS011;9205;52.032;4.314;2024-03-23T14:45:04;0.50;;;0.50;;
18159;SDS011;9205;52.032;4.314;2024-03-23T14:47:32;0.70;;;0.70;;
18159;SDS011;9205;52.032;4.314;2024-03-23T14:50:00;2.53;;;1.03;;
18159;SDS011;9205;52.032;4.314;2024-03-23T14:52:33;0.70;;;0.70;;
18159;SDS011;9205;52.032;4.314;2024-03-23T14:54:59;2.40;;;0.70;;
18159;SDS011;9205;52.032;4.314;2024-03-23T14:57:28;0.50;;;0.50;;
18159;SDS011;9205;52.032;4.314;2024-03-23T14:59:55;1.07;;;0.80;;
18159;SDS011;9205;52.032;4.314;2024-03-23T15:02:22;0.70;;;0.70;;
18159;SDS011;9205;52.032;4.314;2024-03-23T15:04:49;4.40;;;1.43;;
18159;SDS011;9205;52.032;4.314;2024-03-23T15:07:18;0.50;;;0.50;;
18159;SDS011;9205;52.032;4.314;2024-03-23T15:09:44;3.30;;;0.77;;
18159;SDS011;9205;52.032;4.314;2024-03-23T15:12:11;0.83;;;0.83;;
18159;SDS011;9205;52.032;4.314;2024-03-23T15:14:37;0.70;;;0.70;;
18159;SDS011;9205;52.032;4.314;2024-03-23T15:17:05;0.60;;;0.60;;
18159;SDS011;9205;52.032;4.314;2024-03-23T15:19:32;0.70;;;0.70;;
18159;SDS011;9205;52.032;4.314;2024-03-23T15:21:59;0.60;;;0.60;;
18159;SDS011;9205;52.032;4.314;2024-03-23T15:24:27;3.40;;;0.93;;
18159;SDS011;9205;52.032;4.314;2024-03-23T15:26:54;1.63;;;0.83;;
18159;SDS011;9205;52.032;4.314;2024-03-23T15:29:20;0.97;;;0.97;;
18159;SDS011;9205;52.032;4.314;2024-03-23T15:31:48;1.97;;;1.00;;
18159;SDS011;9205;52.032;4.314;2024-03-23T15:34:17;1.17;;;0.93;;
18159;SDS011;9205;52.032;4.314;2024-03-23T15:36:47;0.73;;;0.73;;
18159;SDS011;9205;52.032;4.314;2024-03-23T15:39:14;0.67;;;0.67;;
18159;SDS011;9205;52.032;4.314;2024-03-23T15:41:42;1.07;;;1.00;;
18159;SDS011;9205;52.032;4.314;2024-03-23T15:44:10;0.60;;;0.60;;
18159;SDS011;9205;52.032;4.314;2024-03-23T15:46:37;0.90;;;0.90;;
18159;SDS011;9205;52.032;4.314;2024-03-23T15:49:04;6.17;;;1.43;;
18159;SDS011;9205;52.032;4.314;2024-03-23T15:51:31;3.17;;;0.60;;
18159;SDS011;9205;52.032;4.314;2024-03-23T15:54:00;0.50;;;0.50;;
18159;SDS011;9205;52.032;4.314;2024-03-23T15:56:28;0.70;;;0.70;;
18159;SDS011;9205;52.032;4.314;2024-03-23T15:58:56;1.20;;;0.80;;
18159;SDS011;9205;52.032;4.314;2024-03-23T16:01:30;0.50;;;0.50;;